createdAt,value
2024-03-12T00:01:11.289Z,17.52
2024-03-12T00:03:44.983Z,14.07
2024-03-12T00:06:12.765Z,10.15
2024-03-12T00:08:44.098Z,9.17
2024-03-12T00:11:11.497Z,8.25
2024-03-12T00:13:38.603Z,9.48
2024-03-12T00:16:07.053Z,8.63
2024-03-12T00:18:34.877Z,9.38
2024-03-12T00:21:02.600Z,8.73
2024-03-12T00:23:30.303Z,9.15
2024-03-12T00:25:57.629Z,8.85
2024-03-12T00:28:25.053Z,8.75
2024-03-12T00:30:55.545Z,8.93
2024-03-12T00:33:23.201Z,9.90
2024-03-12T00:35:50.664Z,9.50
2024-03-12T00:38:19.449Z,9.65
2024-03-12T00:40:49.568Z,9.20
2024-03-12T00:43:17.276Z,9.38
2024-03-12T00:45:46.476Z,9.60
2024-03-12T00:48:15.079Z,9.20
2024-03-12T00:50:47.643Z,9.65
2024-03-12T00:53:15.492Z,9.38
2024-03-12T00:55:43.023Z,9.70
2024-03-12T00:58:12.523Z,9.13
2024-03-12T01:00:41.870Z,9.57
2024-03-12T01:03:10.369Z,9.43
2024-03-12T01:05:39.648Z,9.80
2024-03-12T01:08:09.359Z,9.45
2024-03-12T01:10:37.353Z,9.93
2024-03-12T01:13:11.229Z,10.10
2024-03-12T01:15:41.372Z,9.88
2024-03-12T01:18:11.825Z,10.35
2024-03-12T01:20:39.166Z,9.85
2024-03-12T01:23:07.616Z,10.47
2024-03-12T01:25:38.676Z,9.98
2024-03-12T01:28:07.957Z,10.38
2024-03-12T01:30:37.867Z,10.20
2024-03-12T01:33:07.522Z,10.80
2024-03-12T01:35:40.639Z,10.80
2024-03-12T01:38:11.923Z,9.82
2024-03-12T01:40:40.595Z,10.30
2024-03-12T01:43:08.875Z,10.90
2024-03-12T01:45:37.583Z,10.32
2024-03-12T01:48:09.651Z,10.80
2024-03-12T01:50:40.428Z,10.48
2024-03-12T01:53:09.239Z,10.23
2024-03-12T01:55:45.841Z,10.20
2024-03-12T01:58:18.137Z,10.38
2024-03-12T02:00:47.085Z,11.33
2024-03-12T02:03:15.571Z,10.35
2024-03-12T02:05:43.556Z,11.02
2024-03-12T02:08:12.479Z,11.07
2024-03-12T02:10:39.696Z,11.15
2024-03-12T02:13:07.131Z,10.97
2024-03-12T02:15:37.610Z,10.90
2024-03-12T02:18:05.475Z,11.55
2024-03-12T02:20:32.904Z,9.80
2024-03-12T02:23:00.524Z,10.93
2024-03-12T02:25:28.280Z,11.23
2024-03-12T02:27:57.360Z,9.30
2024-03-12T02:30:24.825Z,8.32
2024-03-12T02:32:53.748Z,7.35
2024-03-12T02:35:21.420Z,7.32
2024-03-12T02:37:48.923Z,5.50
2024-03-12T02:40:17.275Z,6.05
2024-03-12T02:42:45.948Z,5.43
2024-03-12T02:45:16.831Z,4.62
2024-03-12T02:47:46.929Z,4.28
2024-03-12T02:50:17.002Z,4.60
2024-03-12T02:52:45.782Z,4.40
2024-03-12T02:55:13.088Z,4.32
2024-03-12T02:57:40.903Z,4.25
2024-03-12T03:00:13.687Z,3.58
2024-03-12T03:02:43.333Z,4.17
2024-03-12T03:05:11.783Z,4.30
2024-03-12T03:07:43.689Z,3.10
2024-03-12T03:10:12.733Z,3.50
2024-03-12T03:12:41.817Z,3.17
2024-03-12T03:15:14.348Z,3.10
2024-03-12T03:17:47.431Z,3.37
2024-03-12T03:20:18.082Z,3.87
2024-03-12T03:22:46.605Z,3.50
2024-03-12T03:25:14.997Z,3.12
2024-03-12T03:27:43.604Z,3.17
2024-03-12T03:30:14.430Z,2.85
2024-03-12T03:32:42.097Z,4.37
2024-03-12T03:35:09.756Z,3.83
2024-03-12T03:37:37.112Z,4.53
2024-03-12T03:40:11.875Z,2.87
2024-03-12T03:42:39.646Z,2.83
2024-03-12T03:45:07.192Z,2.90
2024-03-12T03:47:37.896Z,2.35
2024-03-12T03:50:09.524Z,2.25
2024-03-12T03:52:39.805Z,2.90
2024-03-12T03:55:08.347Z,2.70
2024-03-12T03:57:35.903Z,2.37
2024-03-12T04:00:14.354Z,2.28
2024-03-12T04:02:44.934Z,2.40
2024-03-12T04:05:13.528Z,2.40
2024-03-12T04:07:42.517Z,2.30
2024-03-12T04:10:12.984Z,2.20
2024-03-12T04:12:44.173Z,2.10
2024-03-12T04:15:13.011Z,1.90
2024-03-12T04:17:43.574Z,2.43
2024-03-12T04:20:12.360Z,1.95
2024-03-12T04:22:40.477Z,2.20
2024-03-12T04:25:08.905Z,2.05
2024-03-12T04:27:39.388Z,1.77
2024-03-12T04:30:12.031Z,2.80
2024-03-12T04:32:40.761Z,2.12
2024-03-12T04:35:14.060Z,2.25
2024-03-12T04:37:42.057Z,2.20
2024-03-12T04:40:10.195Z,1.95
2024-03-12T04:42:38.891Z,1.63
2024-03-12T04:45:08.351Z,2.20
2024-03-12T04:47:38.631Z,1.77
2024-03-12T04:50:05.936Z,1.60
2024-03-12T04:52:35.171Z,1.85
2024-03-12T04:55:03.219Z,2.10
2024-03-12T04:57:30.622Z,2.37
2024-03-12T04:59:57.656Z,2.47
2024-03-12T05:02:24.808Z,2.00
2024-03-12T05:04:52.320Z,2.50
2024-03-12T05:07:19.387Z,2.13
2024-03-12T05:09:46.737Z,1.80
2024-03-12T05:12:14.143Z,2.03
2024-03-12T05:14:41.388Z,2.30
2024-03-12T05:17:08.565Z,2.08
2024-03-12T05:19:36.014Z,2.33
2024-03-12T05:22:04.259Z,2.47
2024-03-12T05:24:35.322Z,2.00
2024-03-12T05:27:04.989Z,2.17
2024-03-12T05:29:43.609Z,2.10
2024-03-12T05:32:19.252Z,1.70
2024-03-12T05:34:48.903Z,2.00
2024-03-12T05:37:42.279Z,1.73
2024-03-12T05:40:18.279Z,1.70
2024-03-12T05:43:04.773Z,1.73
2024-03-12T05:45:50.902Z,1.47
2024-03-12T05:48:18.810Z,1.40
2024-03-12T05:50:46.374Z,1.50
2024-03-12T05:53:14.504Z,1.52
2024-03-12T05:55:42.913Z,1.58
2024-03-12T05:58:13.853Z,1.60
2024-03-12T06:00:41.278Z,1.50
2024-03-12T06:03:08.633Z,1.73
2024-03-12T06:05:35.997Z,1.60
2024-03-12T06:08:03.417Z,1.85
2024-03-12T06:10:30.641Z,2.17
2024-03-12T06:12:58.158Z,1.80
2024-03-12T06:15:25.465Z,1.42
2024-03-12T06:17:52.583Z,1.70
2024-03-12T06:20:20.218Z,1.50
2024-03-12T06:22:47.664Z,1.57
2024-03-12T06:25:14.876Z,1.40
2024-03-12T06:27:42.954Z,1.70
2024-03-12T06:30:10.689Z,1.40
2024-03-12T06:32:38.592Z,1.30
2024-03-12T06:35:06.667Z,1.30
2024-03-12T06:37:34.406Z,1.20
2024-03-12T06:40:07.105Z,1.12
2024-03-12T06:42:34.792Z,1.12
2024-03-12T06:45:03.687Z,1.40
2024-03-12T06:47:33.675Z,1.07
2024-03-12T06:50:01.100Z,0.93
2024-03-12T06:52:29.148Z,1.45
2024-03-12T06:54:56.522Z,1.30
2024-03-12T06:57:24.187Z,1.20
2024-03-12T06:59:51.636Z,1.10
2024-03-12T07:02:19.328Z,1.30
2024-03-12T07:04:50.034Z,1.55
2024-03-12T07:07:21.283Z,1.85
2024-03-12T07:09:50.791Z,1.90
2024-03-12T07:12:20.060Z,2.30
2024-03-12T07:14:56.389Z,1.50
2024-03-12T07:17:24.348Z,1.40
2024-03-12T07:19:52.414Z,1.50
2024-03-12T07:22:20.051Z,1.52
2024-03-12T07:24:48.746Z,1.30
2024-03-12T07:27:16.229Z,2.08
2024-03-12T07:29:44.956Z,1.70
2024-03-12T07:32:14.722Z,1.42
2024-03-12T07:34:43.601Z,1.30
2024-03-12T07:37:12.047Z,1.50
2024-03-12T07:39:39.939Z,1.98
2024-03-12T07:42:10.400Z,1.40
2024-03-12T07:44:38.799Z,1.52
2024-03-12T07:47:06.487Z,1.23
2024-03-12T07:49:37.959Z,1.20
2024-03-12T07:52:07.198Z,1.00
2024-03-12T07:54:35.178Z,0.95
2024-03-12T07:57:03.138Z,1.00
2024-03-12T07:59:31.679Z,0.90
2024-03-12T08:01:59.293Z,0.90
2024-03-12T08:04:27.499Z,0.70
2024-03-12T08:06:55.145Z,1.02
2024-03-12T08:09:22.581Z,0.90
2024-03-12T08:11:50.365Z,0.95
2024-03-12T08:14:19.197Z,0.60
2024-03-12T08:16:46.507Z,0.40
2024-03-12T08:19:14.319Z,0.40
2024-03-12T08:21:41.702Z,0.40
2024-03-12T08:24:12.320Z,0.80
2024-03-12T08:26:39.837Z,0.70
2024-03-12T08:29:07.063Z,0.70
2024-03-12T08:31:38.849Z,0.80
2024-03-12T08:34:17.251Z,0.70
2024-03-12T08:36:45.055Z,0.73
2024-03-12T08:39:12.619Z,0.80
2024-03-12T08:41:41.117Z,3.62
2024-03-12T08:44:09.564Z,1.30
2024-03-12T08:46:37.152Z,1.35
2024-03-12T08:49:07.497Z,0.68
2024-03-12T08:51:38.134Z,0.53
2024-03-12T08:54:06.458Z,0.68
2024-03-12T08:56:36.786Z,0.75
2024-03-12T08:59:08.132Z,0.90
2024-03-12T09:01:35.393Z,1.83
2024-03-12T09:04:09.270Z,2.10
2024-03-12T09:06:36.898Z,1.30
2024-03-12T09:09:04.201Z,0.90
2024-03-12T09:11:32.163Z,0.95
2024-03-12T09:14:00.837Z,0.90
2024-03-12T09:16:28.268Z,0.70
2024-03-12T09:18:55.895Z,1.20
2024-03-12T09:21:23.879Z,0.80
2024-03-12T09:23:57.077Z,1.37
2024-03-12T09:26:29.842Z,1.12
2024-03-12T09:28:57.138Z,1.10
2024-03-12T09:31:25.029Z,1.15
2024-03-12T09:33:53.773Z,1.48
2024-03-12T09:36:22.286Z,0.93
2024-03-12T09:38:54.968Z,1.60
2024-03-12T09:41:25.358Z,1.70
2024-03-12T09:43:55.302Z,1.70
2024-03-12T09:46:22.856Z,2.00
2024-03-12T09:48:53.002Z,1.42
2024-03-12T09:51:22.821Z,1.02
2024-03-12T09:53:50.721Z,0.90
2024-03-12T09:56:19.572Z,2.22
2024-03-12T09:58:49.376Z,2.60
2024-03-12T10:01:16.996Z,1.00
2024-03-12T10:03:45.125Z,0.82
2024-03-12T10:06:12.604Z,0.50
2024-03-12T10:08:45.691Z,1.02
2024-03-12T10:11:20.909Z,0.90
2024-03-12T10:13:57.200Z,1.02
2024-03-12T10:16:29.250Z,1.10
2024-03-12T10:19:12.928Z,1.10
2024-03-12T10:21:42.092Z,1.23
2024-03-12T10:24:14.932Z,1.23
2024-03-12T10:26:44.076Z,1.40
2024-03-12T10:29:14.758Z,1.20
2024-03-12T10:31:45.268Z,1.20
2024-03-12T10:34:21.736Z,1.10
2024-03-12T10:36:51.565Z,1.27
2024-03-12T10:39:27.584Z,1.17
2024-03-12T10:42:00.847Z,1.48
2024-03-12T10:44:30.169Z,1.30
2024-03-12T10:47:00.183Z,1.25
2024-03-12T10:49:29.897Z,1.20
2024-03-12T10:51:59.165Z,1.70
2024-03-12T10:54:32.019Z,1.30
2024-03-12T10:57:04.533Z,1.57
2024-03-12T10:59:34.997Z,1.10
2024-03-12T11:02:05.185Z,1.10
2024-03-12T11:04:36.666Z,1.20
2024-03-12T11:07:05.415Z,1.37
2024-03-12T11:09:34.929Z,1.03
2024-03-12T11:12:05.319Z,1.40
2024-03-12T11:14:33.072Z,1.55
2024-03-12T11:17:01.811Z,1.30
2024-03-12T11:19:30.886Z,1.05
2024-03-12T11:22:12.281Z,1.30
2024-03-12T11:24:48.857Z,1.52
2024-03-12T11:27:20.661Z,1.42
2024-03-12T11:30:10.017Z,1.40
2024-03-12T11:32:40.664Z,1.40
2024-03-12T11:35:27.824Z,1.37
2024-03-12T11:37:59.535Z,1.37
2024-03-12T11:40:32.166Z,1.60
2024-03-12T11:43:00.011Z,1.48
2024-03-12T11:45:43.107Z,1.90
2024-03-12T11:48:12.203Z,1.80
2024-03-12T11:50:41.750Z,1.92
2024-03-12T11:53:20.214Z,1.65
2024-03-12T11:55:54.026Z,1.40
2024-03-12T11:58:21.796Z,1.10
2024-03-12T12:00:52.339Z,1.60
2024-03-12T12:03:20.412Z,1.42
2024-03-12T12:05:47.772Z,1.50
2024-03-12T12:08:17.909Z,1.48
2024-03-12T12:11:03.056Z,1.33
2024-03-12T12:13:33.811Z,1.37
2024-03-12T12:16:08.487Z,1.30
2024-03-12T12:18:36.638Z,1.37
2024-03-12T12:21:24.430Z,1.70
2024-03-12T12:23:53.238Z,1.67
2024-03-12T12:26:21.831Z,2.00
2024-03-12T12:28:53.860Z,2.20
2024-03-12T12:31:26.069Z,2.00
2024-03-12T12:33:56.955Z,1.60
2024-03-12T12:36:30.220Z,1.60
2024-03-12T12:39:03.835Z,1.33
2024-03-12T12:41:44.341Z,1.17
2024-03-12T12:44:23.094Z,1.48
2024-03-12T12:46:53.839Z,1.70
2024-03-12T12:49:22.957Z,1.40
2024-03-12T12:51:51.579Z,1.67
2024-03-12T12:54:23.488Z,1.60
2024-03-12T12:56:52.017Z,1.50
2024-03-12T12:59:24.825Z,1.37
2024-03-12T13:01:52.361Z,1.58
2024-03-12T13:04:28.733Z,1.30
2024-03-12T13:06:58.264Z,1.45
2024-03-12T13:09:34.577Z,1.25
2024-03-12T13:12:04.792Z,2.00
2024-03-12T13:14:32.917Z,1.60
2024-03-12T13:17:01.116Z,1.30
2024-03-12T13:19:29.126Z,1.20
2024-03-12T13:21:59.182Z,1.40
2024-03-12T13:24:26.694Z,1.70
2024-03-12T13:26:54.188Z,1.80
2024-03-12T13:29:21.855Z,1.90
2024-03-12T13:31:49.703Z,1.67
2024-03-12T13:34:16.951Z,1.60
2024-03-12T13:36:44.788Z,1.67
2024-03-12T13:39:16.444Z,1.70
2024-03-12T13:41:44.314Z,2.40
2024-03-12T13:44:13.205Z,1.70
2024-03-12T13:46:44.226Z,1.80
2024-03-12T13:49:18.538Z,1.40
2024-03-12T13:51:47.898Z,1.17
2024-03-12T13:54:16.282Z,1.53
2024-03-12T13:56:44.143Z,1.23
2024-03-12T13:59:13.950Z,1.02
2024-03-12T14:01:42.224Z,1.10
2024-03-12T14:04:12.960Z,1.20
2024-03-12T14:06:41.299Z,1.27
2024-03-12T14:09:13.416Z,1.20
2024-03-12T14:11:41.387Z,1.20
2024-03-12T14:14:12.610Z,1.90
2024-03-12T14:16:40.391Z,2.37
2024-03-12T14:19:07.542Z,3.63
2024-03-12T14:21:35.079Z,5.53
2024-03-12T14:24:04.293Z,2.90
2024-03-12T14:26:31.845Z,2.50
2024-03-12T14:28:58.940Z,2.10
2024-03-12T14:31:26.646Z,2.00
2024-03-12T14:33:54.162Z,2.30
2024-03-12T14:36:21.677Z,1.50
2024-03-12T14:38:53.195Z,1.20
2024-03-12T14:41:23.815Z,1.17
2024-03-12T14:43:51.289Z,1.20
2024-03-12T14:46:19.171Z,1.15
2024-03-12T14:48:47.227Z,1.10
2024-03-12T14:51:14.507Z,1.45
2024-03-12T14:53:41.916Z,1.33
2024-03-12T14:56:09.047Z,1.37
2024-03-12T14:58:36.459Z,1.40
2024-03-12T15:01:06.154Z,1.48
2024-03-12T15:03:33.588Z,1.48
2024-03-12T15:06:03.132Z,1.80
2024-03-12T15:08:30.499Z,2.07
2024-03-12T15:10:58.150Z,2.05
2024-03-12T15:13:25.668Z,3.33
2024-03-12T15:15:54.240Z,2.35
2024-03-12T15:18:24.762Z,1.95
2024-03-12T15:20:51.973Z,0.87
2024-03-12T15:23:19.356Z,1.15
2024-03-12T15:25:46.818Z,1.00
2024-03-12T15:28:14.488Z,1.15
2024-03-12T15:30:43.837Z,1.00
2024-03-12T15:33:12.346Z,1.40
2024-03-12T15:35:40.760Z,1.40
2024-03-12T15:38:08.281Z,1.25
2024-03-12T15:40:38.847Z,1.77
2024-03-12T15:43:10.808Z,1.20
2024-03-12T15:45:38.309Z,1.20
2024-03-12T15:48:09.218Z,1.10
2024-03-12T15:50:39.843Z,1.10
2024-03-12T15:53:07.626Z,1.00
2024-03-12T15:55:37.077Z,0.93
2024-03-12T15:58:04.603Z,1.20
2024-03-12T16:00:35.560Z,1.15
2024-03-12T16:03:02.960Z,1.17
2024-03-12T16:05:30.521Z,0.90
2024-03-12T16:07:58.203Z,1.15
2024-03-12T16:10:25.969Z,1.07
2024-03-12T16:12:53.337Z,0.80
2024-03-12T16:15:20.738Z,1.00
2024-03-12T16:17:47.992Z,1.00
2024-03-12T16:20:16.578Z,1.05
2024-03-12T16:22:44.299Z,0.93
2024-03-12T16:25:12.060Z,0.90
2024-03-12T16:27:41.046Z,0.95
2024-03-12T16:30:10.961Z,1.27
2024-03-12T16:32:42.947Z,0.93
2024-03-12T16:35:10.563Z,0.87
2024-03-12T16:37:39.821Z,1.40
2024-03-12T16:40:10.939Z,1.05
2024-03-12T16:42:38.616Z,0.90
2024-03-12T16:45:07.319Z,1.15
2024-03-12T16:47:34.817Z,0.93
2024-03-12T16:50:09.601Z,1.75
2024-03-12T16:52:37.021Z,0.93
2024-03-12T16:55:07.015Z,1.30
2024-03-12T16:57:37.587Z,1.50
2024-03-12T17:00:07.731Z,1.30
2024-03-12T17:02:44.472Z,1.02
2024-03-12T17:05:23.913Z,1.62
2024-03-12T17:07:54.477Z,1.77
2024-03-12T17:10:24.987Z,1.70
2024-03-12T17:12:53.232Z,2.17
2024-03-12T17:15:24.763Z,2.70
2024-03-12T17:17:52.830Z,2.40
2024-03-12T17:20:20.069Z,1.92
2024-03-12T17:22:48.104Z,2.22
2024-03-12T17:25:18.406Z,2.40
2024-03-12T17:27:48.797Z,2.28
2024-03-12T17:30:16.242Z,2.17
2024-03-12T17:32:47.085Z,2.22
2024-03-12T17:35:16.365Z,1.85
2024-03-12T17:37:45.421Z,2.20
2024-03-12T17:40:16.577Z,2.20
2024-03-12T17:42:47.489Z,2.10
2024-03-12T17:45:16.937Z,2.37
2024-03-12T17:47:47.710Z,2.20
2024-03-12T17:50:21.330Z,2.23
2024-03-12T17:52:51.273Z,2.20
2024-03-12T17:55:19.983Z,3.08
2024-03-12T17:57:47.871Z,3.47
2024-03-12T18:00:18.967Z,4.40
2024-03-12T18:02:47.490Z,4.70
2024-03-12T18:05:17.278Z,4.97
2024-03-12T18:07:46.309Z,3.65
2024-03-12T18:10:17.082Z,3.70
2024-03-12T18:12:45.568Z,3.85
2024-03-12T18:15:16.325Z,3.93
2024-03-12T18:17:45.351Z,3.97
2024-03-12T18:20:15.315Z,4.00
2024-03-12T18:22:43.662Z,3.55
2024-03-12T18:25:12.002Z,4.85
2024-03-12T18:27:45.558Z,4.40
2024-03-12T18:30:13.126Z,4.40
2024-03-12T18:32:40.875Z,4.18
2024-03-12T18:35:09.984Z,4.43
2024-03-12T18:37:41.293Z,4.62
2024-03-12T18:40:13.192Z,5.37
2024-03-12T18:42:43.942Z,5.25
2024-03-12T18:45:14.438Z,5.07
2024-03-12T18:47:41.857Z,5.25
2024-03-12T18:50:13.575Z,5.00
2024-03-12T18:52:41.722Z,4.77
2024-03-12T18:55:10.265Z,4.90
2024-03-12T18:57:41.207Z,5.60
2024-03-12T19:00:11.197Z,5.25
2024-03-12T19:02:40.630Z,5.47
2024-03-12T19:05:09.753Z,5.33
2024-03-12T19:07:37.484Z,5.65
2024-03-12T19:10:08.873Z,5.45
2024-03-12T19:12:40.614Z,5.18
2024-03-12T19:15:10.618Z,5.18
2024-03-12T19:17:45.847Z,5.60
2024-03-12T19:20:19.599Z,5.10
2024-03-12T19:22:49.719Z,5.32
2024-03-12T19:25:19.659Z,5.28
2024-03-12T19:27:49.715Z,4.82
2024-03-12T19:30:20.432Z,5.90
2024-03-12T19:32:49.860Z,5.00
2024-03-12T19:35:18.588Z,5.20
2024-03-12T19:37:47.239Z,6.05
2024-03-12T19:40:18.397Z,5.50
2024-03-12T19:42:47.995Z,5.53
2024-03-12T19:45:27.976Z,5.55
2024-03-12T19:47:57.800Z,5.70
2024-03-12T19:50:28.672Z,5.60
2024-03-12T19:52:56.859Z,6.10
2024-03-12T19:55:30.951Z,6.50
2024-03-12T19:58:02.987Z,6.50
2024-03-12T20:00:34.646Z,6.62
2024-03-12T20:03:06.696Z,6.03
2024-03-12T20:05:37.141Z,6.25
2024-03-12T20:08:10.724Z,6.23
2024-03-12T20:10:38.664Z,6.43
2024-03-12T20:13:06.923Z,6.40
2024-03-12T20:15:34.808Z,7.75
2024-03-12T20:18:03.367Z,8.65
2024-03-12T20:20:31.602Z,7.67
2024-03-12T20:22:59.922Z,7.07
2024-03-12T20:25:27.952Z,7.72
2024-03-12T20:27:56.612Z,7.97
2024-03-12T20:30:31.264Z,7.68
2024-03-12T20:33:00.120Z,7.43
2024-03-12T20:35:33.385Z,7.97
2024-03-12T20:38:01.253Z,8.00
2024-03-12T20:40:29.358Z,10.60
2024-03-12T20:43:00.505Z,14.75
2024-03-12T20:45:28.908Z,14.87
2024-03-12T20:47:56.371Z,13.90
2024-03-12T20:50:24.132Z,13.65
2024-03-12T20:52:51.899Z,12.37
2024-03-12T20:55:19.962Z,11.95
2024-03-12T20:57:49.434Z,12.27
2024-03-12T21:00:19.555Z,10.20
2024-03-12T21:02:49.157Z,12.20
2024-03-12T21:05:17.583Z,11.25
2024-03-12T21:07:46.200Z,11.18
2024-03-12T21:10:13.957Z,9.93
2024-03-12T21:12:43.836Z,9.88
2024-03-12T21:15:11.575Z,8.88
2024-03-12T21:17:39.451Z,9.40
2024-03-12T21:20:13.298Z,8.23
2024-03-12T21:22:40.877Z,8.50
2024-03-12T21:25:09.747Z,8.32
2024-03-12T21:27:38.372Z,8.82
2024-03-12T21:30:15.288Z,7.95
2024-03-12T21:32:42.884Z,8.40
2024-03-12T21:35:12.987Z,7.67
2024-03-12T21:37:40.674Z,9.98
2024-03-12T21:40:14.983Z,10.48
2024-03-12T21:42:45.970Z,8.60
2024-03-12T21:45:16.315Z,8.15
2024-03-12T21:47:46.793Z,8.20
2024-03-12T21:50:16.306Z,8.57
2024-03-12T21:52:44.033Z,8.30
2024-03-12T21:55:12.398Z,7.53
2024-03-12T21:57:41.803Z,8.20
2024-03-12T22:00:12.534Z,7.77
2024-03-12T22:02:40.797Z,7.60
2024-03-12T22:05:08.308Z,6.95
2024-03-12T22:07:38.481Z,7.25
2024-03-12T22:10:09.643Z,7.80
2024-03-12T22:12:37.068Z,7.37
2024-03-12T22:15:08.521Z,8.00
2024-03-12T22:17:37.513Z,16.42
2024-03-12T22:20:06.838Z,22.02
2024-03-12T22:22:34.458Z,12.98
2024-03-12T22:25:01.766Z,9.27
2024-03-12T22:27:29.750Z,9.48
2024-03-12T22:29:57.204Z,8.43
2024-03-12T22:32:27.393Z,10.60
2024-03-12T22:34:56.129Z,13.70
2024-03-12T22:37:23.805Z,8.97
2024-03-12T22:39:51.656Z,9.38
2024-03-12T22:42:19.359Z,8.13
2024-03-12T22:44:47.073Z,6.15
2024-03-12T22:47:14.651Z,6.82
2024-03-12T22:49:44.920Z,7.33
2024-03-12T22:52:13.251Z,7.05
2024-03-12T22:54:42.014Z,6.37
2024-03-12T22:57:10.045Z,6.05
2024-03-12T22:59:38.388Z,6.68
2024-03-12T23:02:06.952Z,6.30
2024-03-12T23:04:36.587Z,6.35
2024-03-12T23:07:04.179Z,5.85
2024-03-12T23:09:32.502Z,6.50
2024-03-12T23:12:01.272Z,6.55
2024-03-12T23:14:28.713Z,5.63
2024-03-12T23:16:58.533Z,5.35
2024-03-12T23:19:26.397Z,6.12
2024-03-12T23:21:54.033Z,5.95
2024-03-12T23:24:21.440Z,6.00
2024-03-12T23:26:48.686Z,6.07
2024-03-12T23:29:15.936Z,6.15
2024-03-12T23:31:44.422Z,5.50
2024-03-12T23:34:12.364Z,5.93
2024-03-12T23:36:39.783Z,5.95
2024-03-12T23:39:07.413Z,6.13
2024-03-12T23:41:35.130Z,6.05
2024-03-12T23:44:03.122Z,6.62
2024-03-12T23:46:30.426Z,6.45
2024-03-12T23:48:57.911Z,6.15
2024-03-12T23:51:27.033Z,6.00
2024-03-12T23:53:54.375Z,6.12
2024-03-12T23:56:22.532Z,6.28
2024-03-12T23:58:49.933Z,6.43
